createdAt,value
2024-01-18T00:00:09.400Z,8.17
2024-01-18T00:03:08.366Z,8.12
2024-01-18T00:05:47.062Z,8.16
2024-01-18T00:08:53.453Z,8.19
2024-01-18T00:11:24.510Z,8.14
2024-01-18T00:13:53.363Z,8.12
2024-01-18T00:16:20.696Z,8.19
2024-01-18T00:18:48.764Z,8.23
2024-01-18T00:21:18.849Z,8.25
2024-01-18T00:23:46.799Z,8.24
2024-01-18T00:26:17.802Z,8.38
2024-01-18T00:28:46.301Z,8.36
2024-01-18T00:31:15.359Z,8.43
2024-01-18T00:33:45.647Z,8.42
2024-01-18T00:36:15.933Z,8.45
2024-01-18T00:38:48.592Z,8.49
2024-01-18T00:41:15.957Z,8.52
2024-01-18T00:43:44.994Z,8.45
2024-01-18T00:46:12.949Z,8.45
2024-01-18T00:48:56.929Z,8.56
2024-01-18T00:51:34.195Z,8.52
2024-01-18T00:54:33.295Z,8.64
2024-01-18T00:57:41.396Z,8.62
2024-01-18T01:00:17.558Z,8.73
2024-01-18T01:02:55.467Z,8.76
2024-01-18T01:05:31.674Z,8.80
2024-01-18T01:08:33.401Z,8.82
2024-01-18T01:11:05.655Z,8.77
2024-01-18T01:14:36.765Z,8.84
2024-01-18T01:17:18.375Z,8.82
2024-01-18T01:19:56.718Z,8.82
2024-01-18T01:22:34.419Z,8.75
2024-01-18T01:25:07.800Z,8.83
2024-01-18T01:28:05.013Z,8.81
2024-01-18T01:31:07.636Z,8.80
2024-01-18T01:33:49.002Z,8.79
2024-01-18T01:36:23.717Z,8.81
2024-01-18T01:38:51.359Z,8.85
2024-01-18T01:41:19.092Z,8.88
2024-01-18T01:44:03.059Z,8.91
2024-01-18T01:46:32.034Z,8.97
2024-01-18T01:49:15.963Z,8.90
2024-01-18T01:55:40.986Z,8.90
2024-01-18T02:01:56.412Z,8.87
2024-01-18T02:05:07.386Z,8.87
2024-01-18T02:08:22.112Z,8.88
2024-01-18T02:11:01.269Z,8.95
2024-01-18T02:13:58.563Z,8.91
2024-01-18T02:16:29.074Z,8.93
2024-01-18T02:18:56.573Z,8.94
2024-01-18T02:21:32.016Z,8.96
2024-01-18T02:24:10.404Z,8.98
2024-01-18T02:26:39.388Z,8.98
2024-01-18T02:29:09.763Z,8.98
2024-01-18T02:31:52.566Z,9.09
2024-01-18T02:34:43.302Z,9.13
2024-01-18T02:40:22.620Z,9.09
2024-01-18T02:42:57.493Z,9.06
2024-01-18T02:45:40.909Z,9.01
2024-01-18T02:48:12.024Z,9.03
2024-01-18T02:53:44.843Z,9.03
2024-01-18T02:56:15.365Z,9.06
2024-01-18T02:58:44.864Z,9.06
2024-01-18T03:01:13.141Z,9.09
2024-01-18T03:03:42.158Z,9.02
2024-01-18T03:06:13.901Z,9.02
2024-01-18T03:08:42.160Z,8.99
2024-01-18T03:11:19.248Z,9.06
2024-01-18T03:13:48.331Z,9.10
2024-01-18T03:16:17.409Z,9.08
2024-01-18T03:18:51.055Z,9.07
2024-01-18T03:21:26.167Z,9.11
2024-01-18T03:24:21.073Z,9.15
2024-01-18T03:26:49.337Z,9.25
2024-01-18T03:29:18.537Z,9.30
2024-01-18T03:31:47.613Z,9.33
2024-01-18T03:34:20.139Z,9.41
2024-01-18T03:36:49.677Z,9.41
2024-01-18T03:39:26.500Z,9.39
2024-01-18T03:41:55.506Z,9.39
2024-01-18T03:44:24.518Z,9.48
2024-01-18T03:46:53.628Z,9.51
2024-01-18T03:49:24.940Z,9.52
2024-01-18T03:51:58.151Z,9.55
2024-01-18T03:54:26.869Z,9.52
2024-01-18T03:56:59.821Z,9.58
2024-01-18T03:59:29.242Z,9.54
2024-01-18T04:01:58.365Z,9.51
2024-01-18T04:04:30.463Z,9.61
2024-01-18T04:06:59.670Z,9.65
2024-01-18T04:09:31.648Z,9.68
2024-01-18T04:12:01.099Z,9.78
2024-01-18T04:14:30.281Z,9.83
2024-01-18T04:16:59.325Z,9.82
2024-01-18T04:19:27.514Z,9.79
2024-01-18T04:21:58.738Z,9.77
2024-01-18T04:24:27.288Z,9.83
2024-01-18T04:26:56.758Z,9.88
2024-01-18T04:29:25.953Z,9.91
2024-01-18T04:31:56.783Z,9.89
2024-01-18T04:34:26.142Z,9.95
2024-01-18T04:36:53.933Z,9.95
2024-01-18T04:39:22.014Z,9.97
2024-01-18T04:41:52.117Z,9.96
2024-01-18T04:44:20.032Z,10.00
2024-01-18T04:46:49.431Z,9.91
2024-01-18T04:49:17.628Z,9.93
2024-01-18T04:51:48.532Z,9.98
2024-01-18T04:54:16.277Z,9.93
2024-01-18T04:56:47.824Z,9.95
2024-01-18T04:59:16.796Z,9.86
2024-01-18T05:01:48.038Z,9.77
2024-01-18T05:04:22.997Z,9.67
2024-01-18T05:06:53.641Z,9.69
2024-01-18T05:09:21.485Z,9.65
2024-01-18T05:11:49.988Z,9.69
2024-01-18T05:14:20.481Z,9.61
2024-01-18T05:16:54.999Z,9.66
2024-01-18T05:19:22.814Z,9.68
2024-01-18T05:21:54.379Z,9.74
2024-01-18T05:24:29.004Z,9.82
2024-01-18T05:27:43.534Z,9.77
2024-01-18T05:30:18.532Z,9.80
2024-01-18T05:32:47.020Z,9.92
2024-01-18T05:35:15.784Z,9.88
2024-01-18T05:37:44.354Z,9.88
2024-01-18T05:40:18.961Z,9.93
2024-01-18T05:43:11.362Z,9.92
2024-01-18T05:45:40.419Z,9.96
2024-01-18T05:48:09.090Z,10.03
2024-01-18T05:50:40.556Z,10.02
2024-01-18T05:53:11.295Z,10.06
2024-01-18T05:55:38.770Z,10.04
2024-01-18T05:58:07.122Z,10.18
2024-01-18T06:00:37.457Z,10.22
2024-01-18T06:03:05.518Z,10.29
2024-01-18T06:05:36.343Z,10.48
2024-01-18T06:08:03.878Z,10.60
2024-01-18T06:10:37.064Z,10.71
2024-01-18T06:13:05.815Z,10.86
2024-01-18T06:15:37.983Z,10.90
2024-01-18T06:18:08.265Z,10.87
2024-01-18T06:20:40.834Z,10.91
2024-01-18T06:23:10.515Z,10.97
2024-01-18T06:25:38.689Z,11.00
2024-01-18T06:28:08.983Z,10.98
2024-01-18T06:30:56.471Z,10.92
2024-01-18T06:33:25.220Z,10.92
2024-01-18T06:35:53.775Z,10.89
2024-01-18T06:38:24.009Z,10.85
2024-01-18T06:40:51.843Z,10.89
2024-01-18T06:43:19.432Z,10.94
2024-01-18T06:45:55.928Z,10.94
2024-01-18T06:48:24.260Z,10.92
2024-01-18T06:50:52.753Z,10.90
2024-01-18T06:53:20.379Z,10.89
2024-01-18T06:55:49.623Z,10.96
2024-01-18T06:58:22.754Z,11.03
2024-01-18T07:01:00.311Z,11.02
2024-01-18T07:03:31.891Z,11.01
2024-01-18T07:06:02.821Z,11.02
2024-01-18T07:08:31.093Z,11.02
2024-01-18T07:11:02.260Z,11.04
2024-01-18T07:13:30.106Z,11.06
2024-01-18T07:16:00.941Z,11.03
2024-01-18T07:18:29.464Z,11.09
2024-01-18T07:21:06.348Z,11.16
2024-01-18T07:23:37.918Z,11.22
2024-01-18T07:26:07.857Z,11.20
2024-01-18T07:28:36.258Z,11.28
2024-01-18T07:31:10.022Z,11.32
2024-01-18T07:33:39.390Z,11.40
2024-01-18T07:36:36.434Z,11.44
2024-01-18T07:39:16.900Z,11.46
2024-01-18T07:41:46.469Z,11.46
2024-01-18T07:44:15.493Z,11.54
2024-01-18T07:46:47.682Z,11.61
2024-01-18T07:49:17.594Z,11.64
2024-01-18T07:51:46.513Z,11.72
2024-01-18T07:54:14.699Z,11.79
2024-01-18T07:56:42.969Z,11.82
2024-01-18T07:59:10.564Z,11.98
2024-01-18T08:01:40.367Z,12.23
2024-01-18T08:04:08.013Z,12.55
2024-01-18T08:06:35.809Z,12.61
2024-01-18T08:09:03.226Z,12.59
2024-01-18T08:11:30.826Z,12.60
2024-01-18T08:13:58.681Z,12.63
2024-01-18T08:16:26.181Z,12.75
2024-01-18T08:18:53.725Z,12.75
2024-01-18T08:21:23.148Z,12.85
2024-01-18T08:23:50.571Z,12.99
2024-01-18T08:26:18.217Z,13.14
2024-01-18T08:28:45.419Z,13.31
2024-01-18T08:31:13.395Z,13.46
2024-01-18T08:33:45.426Z,13.48
2024-01-18T08:36:15.452Z,13.36
2024-01-18T08:38:42.907Z,13.38
2024-01-18T08:41:11.753Z,13.44
2024-01-18T08:43:39.304Z,13.34
2024-01-18T08:46:08.651Z,13.30
2024-01-18T08:48:38.288Z,13.35
2024-01-18T08:51:06.246Z,13.48
2024-01-18T08:53:33.622Z,13.57
2024-01-18T08:56:02.419Z,13.60
2024-01-18T08:58:29.616Z,13.63
2024-01-18T09:00:57.603Z,13.60
2024-01-18T09:03:27.164Z,13.59
2024-01-18T09:05:54.866Z,13.64
2024-01-18T09:08:22.587Z,13.68
2024-01-18T09:10:50.753Z,13.72
2024-01-18T09:13:20.478Z,13.62
2024-01-18T09:15:49.843Z,13.66
2024-01-18T09:18:17.184Z,13.77
2024-01-18T09:20:47.748Z,13.92
2024-01-18T09:23:15.365Z,14.09
2024-01-18T09:25:43.723Z,14.28
2024-01-18T09:28:11.577Z,14.39
2024-01-18T09:30:42.439Z,14.51
2024-01-18T09:33:11.965Z,14.66
2024-01-18T09:35:42.077Z,14.74
2024-01-18T09:38:11.897Z,14.75
2024-01-18T09:40:41.364Z,14.82
2024-01-18T09:43:11.888Z,14.79
2024-01-18T09:45:46.390Z,14.74
2024-01-18T09:48:17.576Z,14.86
2024-01-18T09:50:48.282Z,14.79
2024-01-18T09:53:15.814Z,14.92
2024-01-18T09:55:44.663Z,14.92
2024-01-18T09:58:14.805Z,14.99
2024-01-18T10:00:55.790Z,15.34
2024-01-18T10:03:24.165Z,15.62
2024-01-18T10:05:51.968Z,16.10
2024-01-18T10:08:19.457Z,15.74
2024-01-18T10:10:49.338Z,15.91
2024-01-18T10:13:18.953Z,15.82
2024-01-18T10:15:48.834Z,15.93
2024-01-18T10:18:21.922Z,16.17
2024-01-18T10:20:53.095Z,16.65
2024-01-18T10:23:26.346Z,16.60
2024-01-18T10:25:58.402Z,16.69
2024-01-18T10:28:27.994Z,16.57
2024-01-18T10:30:57.486Z,16.69
2024-01-18T10:33:27.755Z,16.79
2024-01-18T10:35:56.622Z,16.97
2024-01-18T10:38:42.205Z,17.10
2024-01-18T10:41:23.497Z,17.60
2024-01-18T10:43:51.044Z,18.17
2024-01-18T10:46:26.254Z,18.10
2024-01-18T10:48:58.042Z,18.15
2024-01-18T10:51:29.523Z,17.70
2024-01-18T10:54:01.914Z,17.83
2024-01-18T10:56:29.836Z,17.72
2024-01-18T10:58:57.933Z,17.70
2024-01-18T11:01:27.698Z,17.48
2024-01-18T11:03:57.818Z,17.17
2024-01-18T11:06:28.579Z,17.17
2024-01-18T11:09:00.927Z,17.02
2024-01-18T11:11:32.909Z,16.87
2024-01-18T11:14:04.879Z,16.90
2024-01-18T11:16:34.737Z,16.83
2024-01-18T11:19:04.086Z,16.84
2024-01-18T11:24:31.206Z,16.71
2024-01-18T11:27:21.955Z,16.68
2024-01-18T11:29:55.353Z,16.56
2024-01-18T11:32:40.512Z,16.58
2024-01-18T11:35:18.243Z,16.59
2024-01-18T11:37:51.206Z,16.69
2024-01-18T11:40:29.175Z,16.78
2024-01-18T11:43:02.839Z,16.78
2024-01-18T11:45:31.669Z,16.73
2024-01-18T11:48:04.134Z,16.50
2024-01-18T11:50:31.464Z,16.52
2024-01-18T11:53:01.255Z,16.54
2024-01-18T11:55:32.095Z,16.51
2024-01-18T11:58:02.932Z,16.57
2024-01-18T12:00:33.343Z,16.52
2024-01-18T12:03:07.043Z,16.56
2024-01-18T12:05:40.399Z,16.54
2024-01-18T12:08:12.125Z,16.77
2024-01-18T12:10:42.257Z,16.82
2024-01-18T12:13:10.303Z,16.87
2024-01-18T12:15:40.352Z,17.36
2024-01-18T12:18:09.624Z,17.38
2024-01-18T12:20:37.106Z,17.55
2024-01-18T12:23:19.166Z,17.41
2024-01-18T12:25:49.995Z,17.30
2024-01-18T12:28:20.060Z,17.29
2024-01-18T12:30:48.646Z,17.27
2024-01-18T12:33:19.754Z,17.21
2024-01-18T12:35:48.674Z,17.09
2024-01-18T12:38:16.925Z,17.01
2024-01-18T12:40:46.459Z,17.03
2024-01-18T12:43:36.922Z,17.04
2024-01-18T12:46:04.909Z,17.05
2024-01-18T12:48:32.975Z,17.06
2024-01-18T12:51:01.806Z,16.96
2024-01-18T12:53:31.773Z,16.94
2024-01-18T12:56:07.801Z,16.91
2024-01-18T12:59:16.510Z,17.00
2024-01-18T13:02:00.260Z,16.90
2024-01-18T13:04:58.442Z,16.94
2024-01-18T13:07:29.461Z,16.91
2024-01-18T13:10:01.771Z,16.81
2024-01-18T13:12:31.847Z,16.82
2024-01-18T13:15:03.940Z,16.76
2024-01-18T13:17:52.769Z,16.73
2024-01-18T13:20:24.905Z,16.69
2024-01-18T13:22:54.212Z,16.66
2024-01-18T13:25:26.401Z,16.65
2024-01-18T13:27:55.114Z,16.57
2024-01-18T13:30:33.729Z,16.61
2024-01-18T13:33:07.787Z,16.55
2024-01-18T13:35:51.691Z,16.53
2024-01-18T13:38:21.136Z,16.56
2024-01-18T13:40:53.595Z,16.59
2024-01-18T13:43:24.247Z,16.63
2024-01-18T13:46:27.171Z,17.21
2024-01-18T13:49:23.063Z,17.19
2024-01-18T13:52:07.043Z,17.15
2024-01-18T13:54:58.341Z,17.83
2024-01-18T13:57:39.526Z,18.82
2024-01-18T14:00:37.289Z,19.43
2024-01-18T14:03:28.597Z,19.60
2024-01-18T14:06:00.600Z,19.18
2024-01-18T14:08:32.096Z,18.80
2024-01-18T14:11:08.545Z,19.02
2024-01-18T14:13:55.628Z,19.13
2024-01-18T14:16:29.482Z,19.38
2024-01-18T14:19:04.920Z,19.26
2024-01-18T14:21:33.950Z,18.77
2024-01-18T14:24:05.881Z,18.77
2024-01-18T14:26:47.045Z,18.97
2024-01-18T14:29:19.028Z,19.24
2024-01-18T14:31:47.857Z,19.40
2024-01-18T14:34:19.029Z,19.42
2024-01-18T14:36:51.436Z,19.25
2024-01-18T14:39:21.912Z,19.04
2024-01-18T14:41:55.887Z,18.95
2024-01-18T14:44:30.013Z,18.88
2024-01-18T14:47:04.006Z,18.83
2024-01-18T14:49:54.497Z,18.61
2024-01-18T14:52:33.896Z,18.59
2024-01-18T14:55:40.381Z,18.13
2024-01-18T14:58:09.088Z,17.77
2024-01-18T15:00:39.263Z,17.58
2024-01-18T15:03:07.715Z,17.38
2024-01-18T15:05:35.408Z,17.27
2024-01-18T15:08:06.275Z,17.14
2024-01-18T15:10:34.228Z,17.08
2024-01-18T15:13:01.770Z,16.97
2024-01-18T15:15:29.759Z,16.95
2024-01-18T15:17:58.448Z,16.83
2024-01-18T15:20:26.681Z,16.84
2024-01-18T15:22:57.159Z,16.79
2024-01-18T15:25:36.080Z,16.70
2024-01-18T15:28:16.013Z,16.74
2024-01-18T15:30:58.596Z,16.64
2024-01-18T15:34:00.698Z,16.55
2024-01-18T15:37:26.912Z,16.45
2024-01-18T15:39:56.744Z,16.30
2024-01-18T15:42:24.368Z,16.39
2024-01-18T15:44:52.382Z,16.32
2024-01-18T15:47:21.212Z,16.26
2024-01-18T15:49:49.038Z,16.31
2024-01-18T15:52:16.394Z,16.31
2024-01-18T15:54:44.434Z,16.25
2024-01-18T15:57:11.964Z,16.31
2024-01-18T15:59:39.479Z,16.35
2024-01-18T16:02:07.367Z,16.25
2024-01-18T16:04:37.024Z,16.23
2024-01-18T16:07:04.636Z,16.20
2024-01-18T16:09:32.951Z,16.18
2024-01-18T16:12:00.303Z,16.15
2024-01-18T16:14:27.821Z,16.07
2024-01-18T16:16:55.066Z,16.02
2024-01-18T16:19:22.773Z,16.10
2024-01-18T16:21:50.120Z,16.03
2024-01-18T16:24:19.249Z,16.06
2024-01-18T16:26:47.025Z,15.95
2024-01-18T16:29:15.001Z,15.93
2024-01-18T16:31:43.970Z,15.95
2024-01-18T16:34:11.686Z,15.96
2024-01-18T16:36:38.987Z,16.03
2024-01-18T16:39:07.228Z,16.04
2024-01-18T16:41:37.015Z,16.05
2024-01-18T16:44:04.966Z,16.01
2024-01-18T16:46:33.994Z,16.05
2024-01-18T16:49:04.771Z,16.11
2024-01-18T16:51:32.383Z,16.27
2024-01-18T16:54:00.618Z,16.35
2024-01-18T16:56:27.810Z,16.27
2024-01-18T16:58:55.403Z,16.28
2024-01-18T17:01:24.105Z,16.40
2024-01-18T17:03:51.901Z,16.36
2024-01-18T17:06:20.346Z,16.31
2024-01-18T17:08:48.191Z,16.29
2024-01-18T17:11:20.455Z,16.30
2024-01-18T17:13:48.906Z,16.17
2024-01-18T17:16:16.262Z,15.96
2024-01-18T17:18:43.911Z,15.87
2024-01-18T17:21:11.618Z,15.74
2024-01-18T17:23:39.899Z,15.53
2024-01-18T17:26:07.385Z,15.53
2024-01-18T17:28:40.360Z,15.34
2024-01-18T17:31:09.466Z,15.24
2024-01-18T17:33:37.574Z,15.21
2024-01-18T17:36:06.267Z,15.09
2024-01-18T17:38:38.690Z,14.97
2024-01-18T17:41:06.489Z,15.03
2024-01-18T17:43:35.976Z,15.05
2024-01-18T17:46:06.879Z,15.09
2024-01-18T17:48:37.485Z,15.08
2024-01-18T17:51:06.651Z,14.98
2024-01-18T17:53:35.613Z,14.80
2024-01-18T17:56:07.717Z,14.75
2024-01-18T17:58:36.020Z,14.71
2024-01-18T18:01:07.549Z,14.45
2024-01-18T18:03:40.964Z,14.40
2024-01-18T18:06:14.618Z,14.33
2024-01-18T18:08:52.412Z,14.25
2024-01-18T18:11:22.030Z,14.21
2024-01-18T18:13:49.949Z,14.14
2024-01-18T18:16:17.772Z,14.07
2024-01-18T18:18:46.057Z,14.05
2024-01-18T18:21:28.707Z,14.01
2024-01-18T18:23:56.542Z,13.92
2024-01-18T18:26:26.332Z,13.90
2024-01-18T18:29:03.227Z,13.89
2024-01-18T18:31:32.220Z,13.96
2024-01-18T18:34:05.553Z,14.15
2024-01-18T18:36:39.036Z,14.24
2024-01-18T18:39:07.716Z,14.23
2024-01-18T18:41:35.024Z,14.20
2024-01-18T18:44:05.139Z,14.38
2024-01-18T18:46:34.589Z,14.29
2024-01-18T18:49:02.133Z,14.30
2024-01-18T18:51:29.441Z,14.32
2024-01-18T18:53:57.151Z,14.21
2024-01-18T18:56:24.988Z,14.11
2024-01-18T18:58:52.543Z,13.89
2024-01-18T19:01:25.326Z,13.74
2024-01-18T19:03:54.272Z,13.81
2024-01-18T19:06:27.026Z,13.69
2024-01-18T19:08:57.566Z,13.68
2024-01-18T19:11:26.046Z,13.78
2024-01-18T19:13:54.893Z,13.76
2024-01-18T19:16:25.120Z,13.69
2024-01-18T19:18:53.813Z,13.56
2024-01-18T19:21:21.245Z,13.74
2024-01-18T19:23:51.141Z,13.77
2024-01-18T19:26:21.393Z,13.95
2024-01-18T19:28:51.389Z,13.96
2024-01-18T19:31:21.495Z,14.10
2024-01-18T19:33:56.089Z,14.26
2024-01-18T19:36:24.628Z,14.25
2024-01-18T19:38:56.298Z,14.30
2024-01-18T19:41:24.185Z,14.22
2024-01-18T19:43:51.978Z,14.25
2024-01-18T19:46:21.152Z,14.34
2024-01-18T19:48:50.218Z,14.33
2024-01-18T19:51:18.743Z,14.32
2024-01-18T19:53:46.640Z,14.43
2024-01-18T19:56:15.295Z,14.54
2024-01-18T19:58:42.953Z,14.56
2024-01-18T20:01:13.591Z,14.62
2024-01-18T20:03:43.492Z,14.63
2024-01-18T20:06:11.421Z,14.55
2024-01-18T20:08:39.014Z,14.63
2024-01-18T20:11:06.372Z,14.71
2024-01-18T20:13:34.667Z,14.74
2024-01-18T20:16:03.092Z,14.72
2024-01-18T20:18:30.796Z,14.82
2024-01-18T20:21:00.657Z,14.89
2024-01-18T20:23:28.466Z,15.06
2024-01-18T20:26:00.306Z,15.02
2024-01-18T20:28:29.007Z,14.96
2024-01-18T20:31:00.065Z,14.87
2024-01-18T20:33:28.117Z,14.88
2024-01-18T20:36:01.242Z,14.88
2024-01-18T20:38:30.597Z,14.95
2024-01-18T20:40:58.177Z,15.02
2024-01-18T20:43:31.921Z,15.09
2024-01-18T20:46:00.209Z,15.07
2024-01-18T20:48:29.933Z,15.07
2024-01-18T20:50:57.520Z,15.15
2024-01-18T20:53:26.478Z,15.11
2024-01-18T20:55:59.870Z,15.08
2024-01-18T20:58:28.963Z,14.96
2024-01-18T21:00:56.513Z,14.92
2024-01-18T21:03:24.075Z,14.98
2024-01-18T21:05:51.488Z,14.96
2024-01-18T21:08:20.002Z,14.94
2024-01-18T21:10:47.203Z,14.96
2024-01-18T21:13:14.787Z,14.93
2024-01-18T21:15:42.039Z,14.91
2024-01-18T21:18:10.145Z,14.89
2024-01-18T21:20:38.466Z,14.91
2024-01-18T21:23:06.957Z,14.88
2024-01-18T21:25:38.846Z,14.92
2024-01-18T21:28:06.430Z,14.81
2024-01-18T21:30:33.764Z,14.81
2024-01-18T21:33:01.497Z,14.87
2024-01-18T21:35:29.427Z,14.78
2024-01-18T21:37:57.003Z,14.80
2024-01-18T21:40:24.946Z,14.73
2024-01-18T21:42:52.686Z,14.62
2024-01-18T21:45:20.096Z,14.49
2024-01-18T21:47:48.540Z,14.56
2024-01-18T21:50:18.147Z,14.40
2024-01-18T21:52:46.045Z,14.32
2024-01-18T21:55:14.193Z,14.22
2024-01-18T21:57:42.122Z,14.23
2024-01-18T22:00:16.347Z,14.18
2024-01-18T22:02:45.494Z,14.01
2024-01-18T22:05:12.796Z,14.12
2024-01-18T22:07:41.095Z,14.12
2024-01-18T22:10:10.380Z,14.09
2024-01-18T22:12:39.481Z,14.05
2024-01-18T22:15:09.705Z,13.98
2024-01-18T22:17:37.277Z,13.95
2024-01-18T22:20:08.241Z,13.96
2024-01-18T22:22:40.880Z,13.86
2024-01-18T22:25:17.723Z,13.78
2024-01-18T22:27:57.403Z,13.73
2024-01-18T22:30:25.173Z,13.64
2024-01-18T22:32:54.522Z,13.58
2024-01-18T22:35:24.150Z,13.59
2024-01-18T22:37:55.698Z,13.54
2024-01-18T22:40:23.539Z,13.55
2024-01-18T22:42:53.278Z,13.52
2024-01-18T22:45:20.649Z,13.46
2024-01-18T22:47:51.357Z,13.58
2024-01-18T22:50:19.973Z,13.43
2024-01-18T22:52:51.236Z,13.39
2024-01-18T22:55:18.462Z,13.47
2024-01-18T22:57:46.012Z,13.51
2024-01-18T23:00:18.693Z,13.44
2024-01-18T23:02:46.753Z,13.41
2024-01-18T23:05:14.582Z,13.42
2024-01-18T23:07:42.283Z,13.45
2024-01-18T23:10:14.222Z,13.37
2024-01-18T23:12:42.713Z,13.35
2024-01-18T23:15:10.531Z,13.39
2024-01-18T23:17:38.406Z,13.40
2024-01-18T23:20:08.492Z,13.43
2024-01-18T23:22:36.212Z,13.51
2024-01-18T23:25:03.575Z,13.48
2024-01-18T23:27:31.188Z,13.53
2024-01-18T23:29:59.218Z,13.47
2024-01-18T23:32:26.904Z,13.45
2024-01-18T23:34:54.490Z,13.50
2024-01-18T23:37:21.968Z,13.55
2024-01-18T23:39:49.199Z,13.53
2024-01-18T23:42:19.212Z,13.50
2024-01-18T23:44:46.790Z,13.52
2024-01-18T23:47:18.432Z,13.59
2024-01-18T23:49:53.054Z,13.65
2024-01-18T23:52:21.771Z,13.67
2024-01-18T23:54:48.939Z,13.68
2024-01-18T23:57:16.892Z,13.64
2024-01-18T23:59:44.949Z,13.42
